createdAt,value
2022-07-29T00:01:19.176Z,4.90
2022-07-29T00:03:21.466Z,4.77
2022-07-29T00:05:23.061Z,5.67
2022-07-29T00:07:24.876Z,5.20
2022-07-29T00:09:26.461Z,4.50
2022-07-29T00:11:28.170Z,5.00
2022-07-29T00:13:32.537Z,4.80
2022-07-29T00:15:34.977Z,5.30
2022-07-29T00:17:36.554Z,5.40
2022-07-29T00:19:38.207Z,5.10
2022-07-29T00:21:39.808Z,5.60
2022-07-29T00:23:41.786Z,5.23
2022-07-29T00:25:43.468Z,5.27
2022-07-29T00:27:45.028Z,4.90
2022-07-29T00:29:48.173Z,5.10
2022-07-29T00:31:49.968Z,5.70
2022-07-29T00:33:51.599Z,5.20
2022-07-29T00:35:53.174Z,4.60
2022-07-29T00:37:56.666Z,5.63
2022-07-29T00:39:58.283Z,5.43
2022-07-29T00:41:59.848Z,6.43
2022-07-29T00:44:01.488Z,5.70
2022-07-29T00:46:04.581Z,5.47
2022-07-29T00:48:06.887Z,5.57
2022-07-29T00:50:10.824Z,6.30
2022-07-29T00:52:12.755Z,5.70
2022-07-29T00:54:18.765Z,5.03
2022-07-29T00:56:20.863Z,5.00
2022-07-29T00:58:22.962Z,4.67
2022-07-29T01:00:26.635Z,4.93
2022-07-29T01:02:29.756Z,4.67
2022-07-29T01:04:32.753Z,5.30
2022-07-29T01:06:35.369Z,4.57
2022-07-29T01:08:38.997Z,5.33
2022-07-29T01:10:42.582Z,6.00
2022-07-29T01:12:45.898Z,5.23
2022-07-29T01:14:49.662Z,5.90
2022-07-29T01:16:55.925Z,5.80
2022-07-29T01:19:07.397Z,5.30
2022-07-29T01:21:28.707Z,5.37
2022-07-29T01:23:53.276Z,5.37
2022-07-29T01:26:20.289Z,5.47
2022-07-29T01:28:48.286Z,5.00
2022-07-29T01:30:54.184Z,5.37
2022-07-29T01:33:02.678Z,4.77
2022-07-29T01:35:07.415Z,4.80
2022-07-29T01:37:19.576Z,5.30
2022-07-29T01:39:26.815Z,4.50
2022-07-29T01:41:32.516Z,5.30
2022-07-29T01:43:40.511Z,4.80
2022-07-29T01:45:47.807Z,5.33
2022-07-29T01:47:57.825Z,4.60
2022-07-29T01:50:01.828Z,5.13
2022-07-29T01:52:08.493Z,5.23
2022-07-29T01:54:15.592Z,4.77
2022-07-29T01:56:19.465Z,5.23
2022-07-29T01:58:22.944Z,5.17
2022-07-29T02:00:26.171Z,5.20
2022-07-29T02:02:31.855Z,5.23
2022-07-29T02:04:37.298Z,4.83
2022-07-29T02:06:43.715Z,4.73
2022-07-29T02:08:47.325Z,4.40
2022-07-29T02:10:50.779Z,5.10
2022-07-29T02:12:54.838Z,5.17
2022-07-29T02:15:00.377Z,4.90
2022-07-29T02:17:03.179Z,4.50
2022-07-29T02:19:08.028Z,3.90
2022-07-29T02:21:14.777Z,4.77
2022-07-29T02:23:20.513Z,4.20
2022-07-29T02:25:23.726Z,3.90
2022-07-29T02:27:27.737Z,4.60
2022-07-29T02:29:31.031Z,4.77
2022-07-29T02:31:35.358Z,4.97
2022-07-29T02:33:38.460Z,4.57
2022-07-29T02:35:44.163Z,4.80
2022-07-29T02:37:47.695Z,4.73
2022-07-29T02:39:52.548Z,5.27
2022-07-29T02:42:00.103Z,4.70
2022-07-29T02:44:07.415Z,4.93
2022-07-29T02:46:29.171Z,4.70
2022-07-29T02:48:37.294Z,4.00
2022-07-29T02:50:49.681Z,4.20
2022-07-29T02:52:59.059Z,4.90
2022-07-29T02:55:03.493Z,4.70
2022-07-29T02:57:10.305Z,5.20
2022-07-29T02:59:14.229Z,4.90
2022-07-29T03:01:21.834Z,5.27
2022-07-29T03:03:29.138Z,5.00
2022-07-29T03:05:33.265Z,4.40
2022-07-29T03:07:37.823Z,4.80
2022-07-29T03:09:41.611Z,5.80
2022-07-29T03:11:50.658Z,5.77
2022-07-29T03:13:52.981Z,4.47
2022-07-29T03:15:56.197Z,5.20
2022-07-29T03:17:59.220Z,4.57
2022-07-29T03:20:01.719Z,5.10
2022-07-29T03:22:03.473Z,5.87
2022-07-29T03:24:10.547Z,5.20
2022-07-29T03:26:13.127Z,5.83
2022-07-29T03:28:14.864Z,5.20
2022-07-29T03:30:21.609Z,5.03
2022-07-29T03:32:25.320Z,5.47
2022-07-29T03:34:27.091Z,6.10
2022-07-29T03:36:28.689Z,5.07
2022-07-29T03:38:34.621Z,5.47
2022-07-29T03:40:42.782Z,5.00
2022-07-29T03:42:46.333Z,5.80
2022-07-29T03:44:49.780Z,5.23
2022-07-29T03:46:52.827Z,5.53
2022-07-29T03:48:59.313Z,5.60
2022-07-29T03:51:01.315Z,5.40
2022-07-29T03:53:03.541Z,5.90
2022-07-29T03:55:06.593Z,5.47
2022-07-29T03:57:12.240Z,5.60
2022-07-29T03:59:15.215Z,6.00
2022-07-29T04:01:17.431Z,5.80
2022-07-29T04:03:19.640Z,5.23
2022-07-29T04:05:21.254Z,5.03
2022-07-29T04:07:22.839Z,5.50
2022-07-29T04:09:24.401Z,5.90
2022-07-29T04:11:26.084Z,5.57
2022-07-29T04:13:29.140Z,6.40
2022-07-29T04:15:31.519Z,4.97
2022-07-29T04:17:33.615Z,5.20
2022-07-29T04:19:35.233Z,6.10
2022-07-29T04:21:38.341Z,5.83
2022-07-29T04:23:46.002Z,5.77
2022-07-29T04:25:54.889Z,5.43
2022-07-29T04:27:56.432Z,5.97
2022-07-29T04:29:59.548Z,5.20
2022-07-29T04:32:01.155Z,5.03
2022-07-29T04:34:02.711Z,5.97
2022-07-29T04:36:04.932Z,5.53
2022-07-29T04:38:26.535Z,5.40
2022-07-29T04:40:28.053Z,6.43
2022-07-29T04:42:29.798Z,6.03
2022-07-29T04:44:31.399Z,5.70
2022-07-29T04:46:40.312Z,5.47
2022-07-29T04:48:42.075Z,6.10
2022-07-29T04:50:43.705Z,6.17
2022-07-29T04:52:45.401Z,5.47
2022-07-29T04:54:47.003Z,5.30
2022-07-29T04:56:48.573Z,6.37
2022-07-29T04:58:50.594Z,6.03
2022-07-29T05:00:52.347Z,5.30
2022-07-29T05:02:55.550Z,6.50
2022-07-29T05:04:57.197Z,5.50
2022-07-29T05:06:59.615Z,5.37
2022-07-29T05:09:01.180Z,5.50
2022-07-29T05:11:11.617Z,5.93
2022-07-29T05:13:14.176Z,5.70
2022-07-29T05:15:15.748Z,5.77
2022-07-29T05:17:17.357Z,5.67
2022-07-29T05:19:20.310Z,6.50
2022-07-29T05:21:21.915Z,5.30
2022-07-29T05:23:23.582Z,5.83
2022-07-29T05:25:43.569Z,6.07
2022-07-29T05:27:46.029Z,6.93
2022-07-29T05:29:47.588Z,5.60
2022-07-29T05:31:49.231Z,6.47
2022-07-29T05:33:51.128Z,5.80
2022-07-29T05:35:57.312Z,6.00
2022-07-29T05:38:02.089Z,6.13
2022-07-29T05:40:04.581Z,6.27
2022-07-29T05:42:09.416Z,5.67
2022-07-29T05:44:10.999Z,6.20
2022-07-29T05:46:12.837Z,5.77
2022-07-29T05:48:14.385Z,6.50
2022-07-29T05:50:16.010Z,6.70
2022-07-29T05:52:19.124Z,6.60
2022-07-29T05:54:20.702Z,6.53
2022-07-29T05:56:22.332Z,6.13
2022-07-29T05:58:23.990Z,6.50
2022-07-29T06:00:25.661Z,7.00
2022-07-29T06:02:27.863Z,5.40
2022-07-29T06:04:29.574Z,6.20
2022-07-29T06:06:31.180Z,6.13
2022-07-29T06:08:34.162Z,6.13
2022-07-29T06:10:36.163Z,6.60
2022-07-29T06:12:37.745Z,6.90
2022-07-29T06:14:39.377Z,8.00
2022-07-29T06:16:41.053Z,8.33
2022-07-29T06:18:42.690Z,8.70
2022-07-29T06:20:44.508Z,6.97
2022-07-29T06:22:46.170Z,6.43
2022-07-29T06:24:49.192Z,8.30
2022-07-29T06:26:50.794Z,8.00
2022-07-29T06:28:52.360Z,6.40
2022-07-29T06:30:53.981Z,6.03
2022-07-29T06:32:55.849Z,6.17
2022-07-29T06:35:24.507Z,7.97
2022-07-29T06:37:19.092Z,8.40
2022-07-29T06:39:21.737Z,9.30
2022-07-29T06:41:24.747Z,6.53
2022-07-29T06:43:26.457Z,7.20
2022-07-29T06:45:28.652Z,7.23
2022-07-29T06:47:30.243Z,5.73
2022-07-29T06:49:34.400Z,8.60
2022-07-29T06:51:36.128Z,7.60
2022-07-29T06:53:38.418Z,8.03
2022-07-29T06:55:40.031Z,9.63
2022-07-29T06:57:42.988Z,6.30
2022-07-29T06:59:44.643Z,6.43
2022-07-29T07:01:46.350Z,6.60
2022-07-29T07:03:48.125Z,6.27
2022-07-29T07:05:49.989Z,7.10
2022-07-29T07:07:51.596Z,6.90
2022-07-29T07:09:54.335Z,6.80
2022-07-29T07:11:56.002Z,7.80
2022-07-29T07:14:03.034Z,5.53
2022-07-29T07:16:05.652Z,7.30
2022-07-29T07:18:07.988Z,6.87
2022-07-29T07:20:10.156Z,6.93
2022-07-29T07:22:11.863Z,6.47
2022-07-29T07:24:13.763Z,6.57
2022-07-29T07:26:15.584Z,6.10
2022-07-29T07:28:17.205Z,6.07
2022-07-29T07:30:20.134Z,7.23
2022-07-29T07:32:21.819Z,6.43
2022-07-29T07:34:28.167Z,6.50
2022-07-29T07:36:31.049Z,6.73
2022-07-29T07:38:32.695Z,6.10
2022-07-29T07:40:34.555Z,6.60
2022-07-29T07:42:36.218Z,6.00
2022-07-29T07:45:03.737Z,6.90
2022-07-29T07:47:12.299Z,6.73
2022-07-29T07:49:14.341Z,7.10
2022-07-29T07:51:16.224Z,7.20
2022-07-29T07:53:17.915Z,6.83
2022-07-29T07:55:19.928Z,7.87
2022-07-29T07:57:21.540Z,7.40
2022-07-29T07:59:23.135Z,6.87
2022-07-29T08:01:24.802Z,7.80
2022-07-29T08:03:27.826Z,6.53
2022-07-29T08:05:29.842Z,6.60
2022-07-29T08:07:31.680Z,7.70
2022-07-29T08:09:33.362Z,7.20
2022-07-29T08:11:37.683Z,6.70
2022-07-29T08:13:39.674Z,7.20
2022-07-29T08:15:41.628Z,7.80
2022-07-29T08:17:43.383Z,7.47
2022-07-29T08:19:46.384Z,6.93
2022-07-29T08:21:47.966Z,7.23
2022-07-29T08:23:54.350Z,7.50
2022-07-29T08:25:59.570Z,7.63
2022-07-29T08:28:01.176Z,7.13
2022-07-29T08:30:02.856Z,7.10
2022-07-29T08:32:05.444Z,6.40
2022-07-29T08:34:07.764Z,7.00
2022-07-29T08:36:10.844Z,8.73
2022-07-29T08:38:12.444Z,7.70
2022-07-29T08:40:14.448Z,8.87
2022-07-29T08:42:16.219Z,8.73
2022-07-29T08:44:17.901Z,7.20
2022-07-29T08:46:28.294Z,8.40
2022-07-29T08:48:30.354Z,9.10
2022-07-29T08:50:31.942Z,8.57
2022-07-29T08:52:37.678Z,7.30
2022-07-29T08:54:40.276Z,9.80
2022-07-29T08:56:42.011Z,8.57
2022-07-29T08:58:46.853Z,8.90
2022-07-29T09:00:56.086Z,7.33
2022-07-29T09:03:00.031Z,7.80
2022-07-29T09:05:02.730Z,8.90
2022-07-29T09:07:06.352Z,6.83
2022-07-29T09:09:09.823Z,8.37
2022-07-29T09:11:12.023Z,8.43
2022-07-29T09:13:13.598Z,8.10
2022-07-29T09:15:15.493Z,8.60
2022-07-29T09:17:17.232Z,7.73
2022-07-29T09:19:29.185Z,9.17
2022-07-29T09:21:41.768Z,8.10
2022-07-29T09:24:01.018Z,8.40
2022-07-29T09:26:06.306Z,6.90
2022-07-29T09:28:08.647Z,7.60
2022-07-29T09:30:14.803Z,8.27
2022-07-29T09:32:16.436Z,8.17
2022-07-29T09:34:23.528Z,8.00
2022-07-29T09:36:25.151Z,7.77
2022-07-29T09:38:26.894Z,7.07
2022-07-29T09:40:29.215Z,9.30
2022-07-29T09:42:32.264Z,8.73
2022-07-29T09:44:46.269Z,10.10
2022-07-29T09:46:56.141Z,8.63
2022-07-29T09:49:07.498Z,8.10
2022-07-29T09:51:20.675Z,8.67
2022-07-29T09:53:34.462Z,6.60
2022-07-29T09:55:47.750Z,7.70
2022-07-29T09:57:50.784Z,8.37
2022-07-29T09:59:59.841Z,7.03
2022-07-29T10:02:02.134Z,6.23
2022-07-29T10:04:04.279Z,7.93
2022-07-29T10:06:07.456Z,8.70
2022-07-29T10:08:10.223Z,8.43
2022-07-29T10:10:11.976Z,8.27
2022-07-29T10:12:14.744Z,8.10
2022-07-29T10:14:18.433Z,7.70
2022-07-29T10:16:20.124Z,7.30
2022-07-29T10:18:22.111Z,6.80
2022-07-29T10:20:24.433Z,8.50
2022-07-29T10:22:51.446Z,10.60
2022-07-29T10:24:47.841Z,9.17
2022-07-29T10:26:50.180Z,6.83
2022-07-29T10:28:51.902Z,8.10
2022-07-29T10:31:02.528Z,9.60
2022-07-29T10:33:18.816Z,8.77
2022-07-29T10:35:37.582Z,6.73
2022-07-29T10:38:04.636Z,7.03
2022-07-29T10:40:14.352Z,6.40
2022-07-29T10:42:33.527Z,8.30
2022-07-29T10:44:40.399Z,9.20
2022-07-29T10:46:44.636Z,8.50
2022-07-29T10:49:05.585Z,7.90
2022-07-29T10:51:09.668Z,7.80
2022-07-29T10:53:14.381Z,8.10
2022-07-29T10:55:34.456Z,8.07
2022-07-29T10:57:54.665Z,6.80
2022-07-29T11:00:31.651Z,7.47
2022-07-29T11:02:46.150Z,7.10
2022-07-29T11:05:01.129Z,7.97
2022-07-29T11:07:09.282Z,7.27
2022-07-29T11:09:20.233Z,7.93
2022-07-29T11:11:33.734Z,8.30
2022-07-29T11:13:50.342Z,7.37
2022-07-29T11:15:58.169Z,7.10
2022-07-29T11:18:14.790Z,7.70
2022-07-29T11:20:34.261Z,7.57
2022-07-29T11:22:45.905Z,8.00
2022-07-29T11:25:16.813Z,7.77
2022-07-29T11:27:20.618Z,7.20
2022-07-29T11:29:25.112Z,6.47
2022-07-29T11:31:38.731Z,8.77
2022-07-29T11:33:55.908Z,6.77
2022-07-29T11:36:09.915Z,7.93
2022-07-29T11:38:28.106Z,8.40
2022-07-29T11:40:30.171Z,7.63
2022-07-29T11:42:44.508Z,7.47
2022-07-29T11:44:56.357Z,6.90
2022-07-29T11:47:00.238Z,6.43
2022-07-29T11:49:09.229Z,7.77
2022-07-29T11:51:12.397Z,7.50
2022-07-29T11:53:15.387Z,6.40
2022-07-29T11:55:19.841Z,8.50
2022-07-29T11:57:22.227Z,7.40
2022-07-29T11:59:32.868Z,7.73
2022-07-29T12:01:35.872Z,7.50
2022-07-29T12:03:37.603Z,8.40
2022-07-29T12:05:48.267Z,8.67
2022-07-29T12:07:53.520Z,8.40
2022-07-29T12:09:56.968Z,7.80
2022-07-29T12:12:04.967Z,8.00
2022-07-29T12:14:07.007Z,6.90
2022-07-29T12:16:08.846Z,8.43
2022-07-29T12:18:18.590Z,7.20
2022-07-29T12:20:24.871Z,7.60
2022-07-29T12:22:28.624Z,7.77
2022-07-29T12:24:45.003Z,7.17
2022-07-29T12:26:53.989Z,6.77
2022-07-29T12:28:55.879Z,7.70
2022-07-29T12:30:58.391Z,7.67
2022-07-29T12:33:01.138Z,8.10
2022-07-29T12:35:07.647Z,8.97
2022-07-29T12:37:10.997Z,7.00
2022-07-29T12:39:14.118Z,6.80
2022-07-29T12:41:16.246Z,6.40
2022-07-29T12:43:19.746Z,7.30
2022-07-29T12:45:29.768Z,6.40
2022-07-29T12:47:31.467Z,6.73
2022-07-29T12:49:33.055Z,6.57
2022-07-29T12:51:40.759Z,6.27
2022-07-29T12:53:42.607Z,6.37
2022-07-29T12:55:49.654Z,6.40
2022-07-29T12:57:52.232Z,6.50
2022-07-29T13:00:01.445Z,6.70
2022-07-29T13:02:05.407Z,6.57
2022-07-29T13:04:07.046Z,6.47
2022-07-29T13:06:27.828Z,7.00
2022-07-29T13:08:29.728Z,6.70
2022-07-29T13:10:36.733Z,5.93
2022-07-29T13:12:56.056Z,6.57
2022-07-29T13:14:57.651Z,6.50
2022-07-29T13:17:05.299Z,6.60
2022-07-29T13:19:11.340Z,6.20
2022-07-29T13:21:15.206Z,6.80
2022-07-29T13:23:17.072Z,6.20
2022-07-29T13:25:25.497Z,6.50
2022-07-29T13:27:28.233Z,6.60
2022-07-29T13:29:31.738Z,6.67
2022-07-29T13:31:33.615Z,6.47
2022-07-29T13:33:35.269Z,6.20
2022-07-29T13:35:39.962Z,5.93
2022-07-29T13:37:42.180Z,6.10
2022-07-29T13:39:43.954Z,6.10
2022-07-29T13:41:55.326Z,6.40
2022-07-29T13:43:57.999Z,5.60
2022-07-29T13:46:01.066Z,6.03
2022-07-29T13:48:02.957Z,5.90
2022-07-29T13:50:06.770Z,5.90
2022-07-29T13:52:08.623Z,6.40
2022-07-29T13:54:10.390Z,6.13
2022-07-29T13:56:11.977Z,6.50
2022-07-29T13:58:13.623Z,6.30
2022-07-29T14:00:15.809Z,6.17
2022-07-29T14:02:18.807Z,5.50
2022-07-29T14:04:20.449Z,6.30
2022-07-29T14:06:22.528Z,6.60
2022-07-29T14:08:24.178Z,5.90
2022-07-29T14:10:26.944Z,6.03
2022-07-29T14:12:28.525Z,6.80
2022-07-29T14:14:30.361Z,6.40
2022-07-29T14:16:32.570Z,7.10
2022-07-29T14:18:35.701Z,6.50
2022-07-29T14:20:37.391Z,6.20
2022-07-29T14:22:42.327Z,6.80
2022-07-29T14:24:44.458Z,6.00
2022-07-29T14:26:46.735Z,6.10
2022-07-29T14:28:48.538Z,6.73
2022-07-29T14:30:50.181Z,7.20
2022-07-29T14:32:51.823Z,6.67
2022-07-29T14:34:54.726Z,6.83
2022-07-29T14:36:56.363Z,6.33
2022-07-29T14:38:58.097Z,5.50
2022-07-29T14:40:59.715Z,6.30
2022-07-29T14:43:01.362Z,6.50
2022-07-29T14:45:03.227Z,6.23
2022-07-29T14:47:07.577Z,4.97
2022-07-29T14:49:09.893Z,6.90
2022-07-29T14:51:12.876Z,6.50
2022-07-29T14:53:14.655Z,6.23
2022-07-29T14:55:20.222Z,6.10
2022-07-29T14:57:22.009Z,5.60
2022-07-29T14:59:23.791Z,6.40
2022-07-29T15:01:25.571Z,5.50
2022-07-29T15:03:27.448Z,6.10
2022-07-29T15:05:29.295Z,5.20
2022-07-29T15:07:32.319Z,6.10
2022-07-29T15:09:33.908Z,6.10
2022-07-29T15:11:41.946Z,5.33
2022-07-29T15:13:43.756Z,5.60
2022-07-29T15:15:45.347Z,5.60
2022-07-29T15:17:46.940Z,5.53
2022-07-29T15:19:48.574Z,5.60
2022-07-29T15:21:50.492Z,5.97
2022-07-29T15:23:53.516Z,5.50
2022-07-29T15:25:55.136Z,5.50
2022-07-29T15:28:00.975Z,5.87
2022-07-29T15:30:03.964Z,5.70
2022-07-29T15:32:06.574Z,5.57
2022-07-29T15:34:08.306Z,6.00
2022-07-29T15:36:09.918Z,6.30
2022-07-29T15:38:11.575Z,6.03
2022-07-29T15:40:14.744Z,6.60
2022-07-29T15:42:16.342Z,5.23
2022-07-29T15:44:21.010Z,5.40
2022-07-29T15:46:22.862Z,5.03
2022-07-29T15:48:24.544Z,5.27
2022-07-29T15:50:26.950Z,5.50
2022-07-29T15:52:28.546Z,5.23
2022-07-29T15:54:30.433Z,5.07
2022-07-29T15:56:33.383Z,4.63
2022-07-29T15:58:35.125Z,5.33
2022-07-29T16:00:36.790Z,5.33
2022-07-29T16:02:38.458Z,5.50
2022-07-29T16:04:40.025Z,5.00
2022-07-29T16:06:41.929Z,5.17
2022-07-29T16:08:43.920Z,5.60
2022-07-29T16:10:45.563Z,5.40
2022-07-29T16:12:48.576Z,4.67
2022-07-29T16:14:51.507Z,4.80
2022-07-29T16:16:54.146Z,5.10
2022-07-29T16:18:55.736Z,5.53
2022-07-29T16:20:57.405Z,6.27
2022-07-29T16:22:59.012Z,5.73
2022-07-29T16:25:00.590Z,5.53
2022-07-29T16:27:02.367Z,6.60
2022-07-29T16:29:05.377Z,5.93
2022-07-29T16:31:07.071Z,4.30
2022-07-29T16:33:08.688Z,4.53
2022-07-29T16:35:10.334Z,4.40
2022-07-29T16:37:11.968Z,4.27
2022-07-29T16:39:13.591Z,4.40
2022-07-29T16:41:15.616Z,4.13
2022-07-29T16:43:17.337Z,4.00
2022-07-29T16:45:21.192Z,4.20
2022-07-29T16:47:23.332Z,4.90
2022-07-29T16:49:27.310Z,4.70
2022-07-29T16:51:28.976Z,4.30
2022-07-29T16:53:30.737Z,4.20
2022-07-29T16:55:32.381Z,4.77
2022-07-29T16:57:33.977Z,5.13
2022-07-29T16:59:35.543Z,5.20
2022-07-29T17:01:46.652Z,6.33
2022-07-29T17:03:48.342Z,5.07
2022-07-29T17:05:50.485Z,7.13
2022-07-29T17:07:55.496Z,6.80
2022-07-29T17:10:00.672Z,6.60
2022-07-29T17:12:05.998Z,5.83
2022-07-29T17:14:07.698Z,7.03
2022-07-29T17:16:10.675Z,7.30
2022-07-29T17:18:13.692Z,7.40
2022-07-29T17:20:17.649Z,7.10
2022-07-29T17:22:19.735Z,7.03
2022-07-29T17:24:21.314Z,7.03
2022-07-29T17:26:22.958Z,7.00
2022-07-29T17:28:24.755Z,7.20
2022-07-29T17:30:26.525Z,6.30
2022-07-29T17:32:28.258Z,6.87
2022-07-29T17:34:34.411Z,7.00
2022-07-29T17:36:36.154Z,6.20
2022-07-29T17:38:37.772Z,6.07
2022-07-29T17:40:39.411Z,9.40
2022-07-29T17:42:40.963Z,7.60
2022-07-29T17:44:42.631Z,7.10
2022-07-29T17:46:44.376Z,6.77
2022-07-29T17:48:46.103Z,7.93
2022-07-29T17:50:50.499Z,5.67
2022-07-29T17:52:52.144Z,6.43
2022-07-29T17:54:53.733Z,7.07
2022-07-29T17:56:55.698Z,6.90
2022-07-29T17:58:57.472Z,7.10
2022-07-29T18:00:59.297Z,5.97
2022-07-29T18:03:01.156Z,7.20
2022-07-29T18:05:03.693Z,7.40
2022-07-29T18:07:06.619Z,7.00
2022-07-29T18:09:12.227Z,7.17
2022-07-29T18:11:14.721Z,6.67
2022-07-29T18:13:16.735Z,7.80
2022-07-29T18:15:18.568Z,6.50
2022-07-29T18:17:20.216Z,5.97
2022-07-29T18:19:21.887Z,6.40
2022-07-29T18:21:43.747Z,6.23
2022-07-29T18:23:46.573Z,7.00
2022-07-29T18:25:48.229Z,6.43
2022-07-29T18:27:50.009Z,6.87
2022-07-29T18:29:52.148Z,6.93
2022-07-29T18:31:53.737Z,6.73
2022-07-29T18:33:59.871Z,7.80
2022-07-29T18:36:07.656Z,7.47
2022-07-29T18:38:13.784Z,7.30
2022-07-29T18:40:16.798Z,6.77
2022-07-29T18:42:18.467Z,6.30
2022-07-29T18:44:21.960Z,7.57
2022-07-29T18:46:25.454Z,6.97
2022-07-29T18:48:27.354Z,5.80
2022-07-29T18:50:29.940Z,7.83
2022-07-29T18:52:31.857Z,7.67
2022-07-29T18:54:33.547Z,7.40
2022-07-29T18:56:36.716Z,7.00
2022-07-29T18:58:38.342Z,6.97
2022-07-29T19:00:40.007Z,7.27
2022-07-29T19:02:43.299Z,8.33
2022-07-29T19:04:45.074Z,7.50
2022-07-29T19:06:46.792Z,8.63
2022-07-29T19:08:48.394Z,7.63
2022-07-29T19:10:49.981Z,6.50
2022-07-29T19:12:52.953Z,7.03
2022-07-29T19:14:54.607Z,6.20
2022-07-29T19:16:56.577Z,6.53
2022-07-29T19:18:58.469Z,6.20
2022-07-29T19:21:00.077Z,6.97
2022-07-29T19:23:01.772Z,6.23
2022-07-29T19:25:03.876Z,5.93
2022-07-29T19:27:05.490Z,6.60
2022-07-29T19:29:08.533Z,6.83
2022-07-29T19:31:10.188Z,5.20
2022-07-29T19:33:11.829Z,6.70
2022-07-29T19:35:13.499Z,7.07
2022-07-29T19:37:15.118Z,6.33
2022-07-29T19:39:16.798Z,7.00
2022-07-29T19:41:18.589Z,7.00
2022-07-29T19:43:51.924Z,6.70
2022-07-29T19:45:43.257Z,5.70
2022-07-29T19:47:44.903Z,6.77
2022-07-29T19:49:46.547Z,6.03
2022-07-29T19:51:48.162Z,5.23
2022-07-29T19:53:50.095Z,5.03
2022-07-29T19:55:52.036Z,6.97
2022-07-29T19:57:53.698Z,6.73
2022-07-29T19:59:55.356Z,5.20
2022-07-29T20:01:59.348Z,7.10
2022-07-29T20:04:01.053Z,6.70
2022-07-29T20:06:02.700Z,5.20
2022-07-29T20:08:04.846Z,6.60
2022-07-29T20:10:08.574Z,6.33
2022-07-29T20:12:10.898Z,6.67
2022-07-29T20:14:12.562Z,6.70
2022-07-29T20:16:14.251Z,6.10
2022-07-29T20:18:17.318Z,5.70
2022-07-29T20:20:19.393Z,6.80
2022-07-29T20:22:21.511Z,6.30
2022-07-29T20:24:23.421Z,6.40
2022-07-29T20:26:25.044Z,7.17
2022-07-29T20:28:26.790Z,6.77
2022-07-29T20:30:28.783Z,7.00
2022-07-29T20:32:31.234Z,6.10
2022-07-29T20:34:34.215Z,6.10
2022-07-29T20:36:36.442Z,6.27
2022-07-29T20:38:38.120Z,6.73
2022-07-29T20:40:39.784Z,7.10
2022-07-29T20:42:41.500Z,6.17
2022-07-29T20:44:43.350Z,5.93
2022-07-29T20:46:45.292Z,5.70
2022-07-29T20:48:46.984Z,6.73
2022-07-29T20:50:50.236Z,6.13
2022-07-29T20:52:52.162Z,7.57
2022-07-29T20:54:53.764Z,7.17
2022-07-29T20:56:55.467Z,7.20
2022-07-29T20:58:57.202Z,8.13
2022-07-29T21:00:58.829Z,8.47
2022-07-29T21:03:01.634Z,7.70
2022-07-29T21:05:03.698Z,8.70
2022-07-29T21:07:09.737Z,7.80
2022-07-29T21:09:11.348Z,8.77
2022-07-29T21:11:13.031Z,8.17
2022-07-29T21:13:14.782Z,8.10
2022-07-29T21:15:16.486Z,9.23
2022-07-29T21:17:18.343Z,7.90
2022-07-29T21:19:22.894Z,8.03
2022-07-29T21:21:24.540Z,8.10
2022-07-29T21:23:28.187Z,7.57
2022-07-29T21:25:29.765Z,7.33
2022-07-29T21:27:31.677Z,8.40
2022-07-29T21:29:33.289Z,7.33
2022-07-29T21:31:36.138Z,7.67
2022-07-29T21:33:39.742Z,7.27
2022-07-29T21:36:06.280Z,8.03
2022-07-29T21:38:03.481Z,9.10
2022-07-29T21:40:08.253Z,8.33
2022-07-29T21:42:09.942Z,7.90
2022-07-29T21:44:11.518Z,9.67
2022-07-29T21:46:13.190Z,8.33
2022-07-29T21:48:14.815Z,7.23
2022-07-29T21:50:16.394Z,8.40
2022-07-29T21:52:20.564Z,8.03
2022-07-29T21:54:22.625Z,8.10
2022-07-29T21:56:27.514Z,8.77
2022-07-29T21:58:29.607Z,7.80
2022-07-29T22:00:31.700Z,7.27
2022-07-29T22:02:33.416Z,7.30
2022-07-29T22:04:35.150Z,8.70
2022-07-29T22:06:36.978Z,7.50
2022-07-29T22:08:38.788Z,7.33
2022-07-29T22:10:40.485Z,7.40
2022-07-29T22:12:43.720Z,7.77
2022-07-29T22:14:45.376Z,8.27
2022-07-29T22:16:48.801Z,7.40
2022-07-29T22:18:50.411Z,8.03
2022-07-29T22:20:52.096Z,8.17
2022-07-29T22:22:53.978Z,7.60
2022-07-29T22:24:55.581Z,7.40
2022-07-29T22:26:57.386Z,7.67
2022-07-29T22:29:00.639Z,6.87
2022-07-29T22:31:02.265Z,7.50
2022-07-29T22:33:04.132Z,8.20
2022-07-29T22:35:06.953Z,7.60
2022-07-29T22:37:11.017Z,7.30
2022-07-29T22:39:15.610Z,7.17
2022-07-29T22:41:17.892Z,8.03
2022-07-29T22:43:19.704Z,6.60
2022-07-29T22:45:22.890Z,7.80
2022-07-29T22:47:46.468Z,7.00
2022-07-29T22:49:46.081Z,7.33
2022-07-29T22:51:47.712Z,7.37
2022-07-29T22:53:49.402Z,7.37
2022-07-29T22:55:51.068Z,7.60
2022-07-29T22:57:52.704Z,6.90
2022-07-29T22:59:54.370Z,6.87
2022-07-29T23:01:57.410Z,6.87
2022-07-29T23:03:59.197Z,7.70
2022-07-29T23:06:01.105Z,7.20
2022-07-29T23:08:02.782Z,7.70
2022-07-29T23:10:05.643Z,7.27
2022-07-29T23:12:08.190Z,7.20
2022-07-29T23:14:09.846Z,7.73
2022-07-29T23:16:11.638Z,7.00
2022-07-29T23:18:20.733Z,7.50
2022-07-29T23:20:22.361Z,7.50
2022-07-29T23:22:23.968Z,7.50
2022-07-29T23:24:25.589Z,6.20
2022-07-29T23:26:27.242Z,7.20
2022-07-29T23:28:28.802Z,7.10
2022-07-29T23:30:30.557Z,6.73
2022-07-29T23:32:32.213Z,6.80
2022-07-29T23:34:35.185Z,8.00
2022-07-29T23:36:36.799Z,6.50
2022-07-29T23:38:40.975Z,9.10
2022-07-29T23:40:42.491Z,8.60
2022-07-29T23:42:44.319Z,8.77
2022-07-29T23:44:45.994Z,7.83
2022-07-29T23:46:47.628Z,9.10
2022-07-29T23:48:49.512Z,8.67
2022-07-29T23:50:52.594Z,9.60
2022-07-29T23:52:54.179Z,9.70
2022-07-29T23:54:55.777Z,9.10
2022-07-29T23:57:17.368Z,9.27
2022-07-29T23:59:18.947Z,10.10
